Miltona, Minnesota
Current Conditions -  °F | °C
As of 4:53 AM on Thursday 27 Nov 2014 (Local Time) from KAXN Reporting Station
Clear Clear  
Wind Chill: -21°   Ceiling: Unl
Heat Index: -21°   Visibility: 10mi
Dew Point: -23°   Wind: 0mph
Humidity: 80%   Direction: NA
Pressure: 30.46"   Gusts: NA
Location:  46.04°N, 95.29°W
Report Text: KAXN 271053Z AUTO 00000KT 10SM CLR M21/M23 A3046 RMK AO2 SLP357 T12061233
Loading
Personal Weather Stations






























Interactive Weather Map New forecast layout! Learn more

10-Day Weather Forecast

Advertisements
Track Severe Weather on mobile